Terminal Aerodrome Forecast
Issued by NWS Billings, MT

Current Version | Previous Version | Text Only | Print | Product List | Glossary On
Versions: 1 2 3 4 5 6 7 8 9 10 11 12 13 14 15 16 17 18 19 20 21 22 23 24 25 26 27 28 29 30 31 32
000
FTUS45 KBYZ 041858 AAA
TAFBIL
TAF AMD
KBIL 041858Z 0419/0518 30012G18KT P6SM FEW100 SCT200
     FM050800 36013G24KT P6SM FEW050 BKN090
     FM051300 03008KT P6SM VCSH SCT025 BKN050=

USA.gov is the U.S. government's official web portal to all federal, state and local government web resources and services.